| time (UTC) | temp F | wind direction | speed knots | gust knots | rain 1hr in | rain 24hr in | rain mn in | humidity % | barometer mb |
| 20260507234532 | 70 | 86 | 7.0 | 10.4 | 0.00 | 0.00 | 0.00 | 25 | 1012.8 |
| 20260507233024 | 69 | 116 | 6.1 | 8.7 | 0.00 | 0.00 | 0.00 | 26 | 1012.9 |
| 20260507231522 | 69 | 108 | 5.2 | 9.6 | 0.00 | 0.00 | 0.00 | 27 | 1013.0 |
| 20260507230024 | 69 | 102 | 7.0 | 10.4 | 0.00 | 0.00 | 0.00 | 25 | 1013.0 |
| 20260507224528 | 69 | 89 | 5.2 | 8.7 | 0.00 | 0.00 | 0.00 | 26 | 1013.0 |
| 20260507223026 | 69 | 119 | 4.3 | 7.0 | 0.00 | 0.00 | 0.00 | 23 | 1013.1 |
| 20260507221519 | 70 | 123 | 4.3 | 7.0 | 0.00 | 0.00 | 0.00 | 24 | 1013.2 |
| 20260507220022 | 71 | 215 | 3.5 | 10.4 | 0.00 | 0.00 | 0.00 | 23 | 1013.5 |
| 20260507214530 | 71 | 161 | 1.7 | 9.6 | 0.00 | 0.00 | 0.00 | 22 | 1013.5 |
| 20260507213012 | 71 | 301 | 5.2 | 8.7 | 0.00 | 0.00 | 0.00 | 22 | 1013.8 |
| 20260507211517 | 70 | 141 | 5.2 | 7.8 | 0.00 | 0.00 | 0.00 | 22 | 1014.0 |
| 20260507210022 | 70 | 44 | 3.5 | 11.3 | 0.00 | 0.00 | 0.00 | 19 | 1014.4 |
| 20260507204525 | 70 | 240 | 6.1 | 8.7 | 0.00 | 0.00 | 0.00 | 19 | 1014.5 |
| 20260507203028 | 69 | 236 | 6.1 | 11.3 | 0.00 | 0.01 | 0.00 | 17 | 1014.9 |
| 20260507201516 | 68 | 275 | 5.2 | 12.2 | 0.00 | 0.01 | 0.00 | 19 | 1015.1 |
| 20260507200020 | 68 | 285 | 2.6 | 7.8 | 0.00 | 0.01 | 0.00 | 20 | 1015.4 |
| 20260507194523 | 68 | 264 | 1.7 | 11.3 | 0.00 | 0.01 | 0.00 | 23 | 1015.5 |
| 20260507193027 | 69 | 194 | 4.3 | 7.8 | 0.00 | 0.01 | 0.00 | 19 | 1015.6 |
| 20260507191528 | 69 | 297 | 4.3 | 8.7 | 0.00 | 0.01 | 0.00 | 19 | 1015.8 |
| 20260507190018 | 68 | 207 | 5.2 | 11.3 | 0.00 | 0.01 | 0.00 | 22 | 1015.9 |
| 20260507184522 | 66 | 203 | 3.5 | 11.3 | 0.00 | 0.02 | 0.00 | 21 | 1016.1 |
| 20260507183024 | 65 | 249 | 7.8 | 10.4 | 0.00 | 0.03 | 0.00 | 23 | 1016.3 |
| 20260507181526 | 64 | 250 | 5.2 | 13.9 | 0.00 | 0.03 | 0.00 | 23 | 1016.6 |
| 20260507180026 | 63 | 4 | 4.3 | 13.0 | 0.00 | 0.03 | 0.00 | 24 | 1016.7 |
| 20260507174540 | 62 | 318 | 6.1 | 13.0 | 0.00 | 0.04 | 0.00 | 29 | 1017.0 |
| 20260507173024 | 62 | 252 | 11.3 | 16.5 | 0.00 | 0.04 | 0.00 | 34 | 1017.2 |
| 20260507171539 | 61 | 295 | 11.3 | 17.4 | 0.00 | 0.04 | 0.00 | 31 | 1017.4 |
| 20260507170028 | 61 | 271 | 15.6 | 19.1 | 0.00 | 0.04 | 0.00 | 33 | 1017.4 |
| 20260507164528 | 60 | 260 | 14.8 | 19.1 | 0.00 | 0.05 | 0.00 | 35 | 1017.5 |
| 20260507163023 | 60 | 242 | 13.9 | 17.4 | 0.00 | 0.05 | 0.00 | 32 | 1017.5 |
| 20260507161525 | 58 | 288 | 12.2 | 18.2 | 0.00 | 0.05 | 0.00 | 40 | 1017.6 |
| 20260507154528 | 57 | 302 | 12.2 | 17.4 | 0.00 | 0.07 | 0.00 | 42 | 1017.8 |
| 20260507153029 | 55 | 349 | 6.1 | 13.9 | 0.00 | 0.08 | 0.00 | 44 | 1017.9 |
| 20260507151523 | 52 | 263 | 13.0 | 22.6 | 0.00 | 0.08 | 0.00 | 46 | 1018.0 |
| 20260507144526 | 49 | 278 | 13.9 | 20.0 | 0.00 | 0.08 | 0.00 | 49 | 1018.0 |
| 20260507143027 | 48 | 271 | 14.8 | 20.9 | 0.00 | 0.08 | 0.00 | 49 | 1018.1 |
| 20260507141526 | 47 | 259 | 13.0 | 20.9 | 0.00 | 0.08 | 0.00 | 49 | 1018.0 |
| 20260507140036 | 46 | 240 | 12.2 | 24.3 | 0.00 | 0.08 | 0.00 | 48 | 1018.1 |
| 20260507134526 | 45 | 282 | 20.9 | 29.5 | 0.00 | 0.08 | 0.00 | 47 | 1017.8 |
| 20260507133026 | 43 | 295 | 13.9 | 18.2 | 0.00 | 0.08 | 0.00 | 51 | 1018.1 |
| 20260507113007 | 40 | 276 | 10.4 | 22.6 | 0.00 | 0.09 | 0.00 | 56 | 1018.3 |
| 20260507111513 | 40 | 284 | 17.4 | 21.7 | 0.00 | 0.09 | 0.00 | 56 | 1018.1 |
| 20260507110018 | 39 | 227 | 4.3 | 10.4 | 0.00 | 0.09 | 0.00 | 59 | 1018.5 |
| 20260507104523 | 34 | 9 | 0.0 | 5.2 | 0.00 | 0.09 | 0.00 | 74 | 1018.7 |
| 20260507103005 | 35 | 76 | 0.9 | 5.2 | 0.00 | 0.09 | 0.00 | 77 | 1018.8 |
| 20260507101520 | 33 | 200 | 0.9 | 2.6 | 0.00 | 0.09 | 0.00 | 82 | 1018.8 |
| 20260507100029 | 34 | 129 | 0.0 | 4.3 | 0.00 | 0.09 | 0.00 | 83 | 1019.1 |
| 20260507094518 | 32 | 31 | 0.0 | 1.7 | 0.00 | 0.09 | 0.00 | 84 | 1019.2 |
| 20260507093028 | 32 | 8 | 0.9 | 7.8 | 0.00 | 0.09 | 0.00 | 85 | 1019.5 |
| 20260507091508 | 32 | 11 | 5.2 | 7.0 | 0.00 | 0.09 | 0.00 | 88 | 1019.5 |
| 20260507090008 | 32 | 352 | 6.1 | 8.7 | 0.00 | 0.09 | 0.00 | 87 | 1019.5 |
| 20260507084538 | 32 | 325 | 7.8 | 10.4 | 0.00 | 0.09 | 0.00 | 87 | 1019.6 |
| 20260507083023 | 32 | 344 | 7.8 | 10.4 | 0.00 | 0.09 | 0.00 | 87 | 1019.5 |
| 20260507081521 | 32 | 5 | 7.8 | 9.6 | 0.00 | 0.09 | 0.00 | 88 | 1019.7 |
| 20260507080007 | 31 | 345 | 4.3 | 6.1 | 0.00 | 0.09 | 0.00 | 86 | 1020.0 |
| 20260507074511 | 32 | 334 | 4.3 | 7.0 | 0.00 | 0.09 | 0.00 | 85 | 1020.1 |
| 20260507073023 | 33 | 345 | 4.3 | 7.0 | 0.00 | 0.10 | 0.00 | 83 | 1020.1 |
| 20260507071522 | 35 | 255 | 1.7 | 2.6 | 0.00 | 0.10 | 0.00 | 83 | 1020.3 |
| 20260507070025 | 33 | 303 | 1.7 | 2.6 | 0.00 | 0.12 | 0.00 | 86 | 1020.4 |
| 20260507064508 | 34 | 330 | 0.0 | 0.0 | 0.00 | 0.14 | 0.00 | 86 | 1020.6 |
| 20260507063015 | 33 | 330 | 0.0 | 0.9 | 0.00 | 0.15 | 0.00 | 88 | 1020.4 |
| 20260507061517 | 33 | 330 | 0.9 | 0.9 | 0.00 | 0.17 | 0.00 | 88 | 1020.6 |
| 20260507060032 | 33 | 158 | 0.0 | 0.9 | 0.00 | 0.17 | 0.00 | 88 | 1020.5 |
| 20260507054535 | 33 | 198 | 0.0 | 1.7 | 0.00 | 0.17 | 0.17 | 88 | 1020.2 |
| 20260507053029 | 33 | 189 | 0.0 | 1.7 | 0.00 | 0.17 | 0.17 | 88 | 1020.2 |
| 20260507051514 | 34 | 227 | 0.9 | 2.6 | 0.00 | 0.18 | 0.17 | 88 | 1020.2 |
| 20260507050036 | 34 | 210 | 0.9 | 1.7 | 0.00 | 0.18 | 0.17 | 88 | 1020.2 |
| 20260507044525 | 34 | 228 | 0.0 | 3.5 | 0.00 | 0.18 | 0.17 | 87 | 1020.3 |
| 20260507043026 | 35 | 172 | 0.9 | 2.6 | 0.00 | 0.18 | 0.17 | 87 | 1020.2 |
| 20260507041527 | 35 | 215 | 0.9 | 0.9 | 0.00 | 0.19 | 0.17 | 87 | 1020.4 |
| 20260507040016 | 35 | 212 | 0.9 | 1.7 | 0.00 | 0.19 | 0.17 | 86 | 1020.3 |
| 20260507034524 | 35 | 209 | 0.9 | 2.6 | 0.00 | 0.20 | 0.17 | 86 | 1020.3 |
| 20260507033030 | 36 | 169 | 1.7 | 3.5 | 0.00 | 0.20 | 0.17 | 86 | 1020.4 |
| 20260507031530 | 36 | 175 | 1.7 | 3.5 | 0.00 | 0.21 | 0.17 | 86 | 1020.4 |
| 20260507030034 | 36 | 203 | 1.7 | 3.5 | 0.00 | 0.21 | 0.17 | 85 | 1020.3 |
| 20260507024518 | 36 | 190 | 1.7 | 3.5 | 0.00 | 0.22 | 0.17 | 84 | 1020.2 |
| 20260507023020 | 37 | 138 | 2.6 | 4.3 | 0.00 | 0.22 | 0.17 | 82 | 1020.2 |
| 20260507021540 | 38 | 150 | 3.5 | 4.3 | 0.00 | 0.22 | 0.17 | 78 | 1020.2 |
| 20260507020027 | 39 | 199 | 1.7 | 3.5 | 0.00 | 0.22 | 0.17 | 77 | 1020.2 |
| 20260507014525 | 40 | 191 | 2.6 | 4.3 | 0.00 | 0.22 | 0.17 | 74 | 1020.2 |
| 20260507013016 | 40 | 153 | 3.5 | 7.8 | 0.00 | 0.22 | 0.17 | 74 | 1020.2 |
| 20260507011528 | 41 | 141 | 4.3 | 9.6 | 0.00 | 0.22 | 0.17 | 73 | 1019.9 |
| 20260507010034 | 44 | 217 | 3.5 | 7.0 | 0.00 | 0.23 | 0.17 | 68 | 1019.9 |
| 20260507004526 | 41 | 200 | 3.5 | 6.1 | 0.00 | 0.23 | 0.17 | 72 | 1020.0 |
| 20260507003029 | 41 | 225 | 3.5 | 6.1 | 0.00 | 0.24 | 0.17 | 74 | 1019.9 |
| 20260507001522 | 41 | 211 | 3.5 | 7.8 | 0.00 | 0.25 | 0.17 | 76 | 1020.2 |
| 20260507000022 | 42 | 212 | 4.3 | 9.6 | 0.00 | 0.30 | 0.17 | 73 | 1020.1 |